Time;durP1;ratioP1;P1;durP2;ratioP2;P2;SDS_P1;SDS_P2;PMS_P1;PMS_P2;Temp;Humidity;BMP_temperature;BMP_pressure;BME280_temperature;BME280_humidity;BME280_pressure;Samples;Min_cycle;Max_cycle;Signal;HPM_P1;HPM_P2
2021/04/21 08:05:15;;;;;;;8.30;7.07;;;18.70;54.20;;;;;;4704187;28;10000493;-33
2021/04/21 08:07:54;;;;;;;10.15;7.00;;;19.60;52.40;;;;;;5055324;28;20114;-35
2021/04/21 08:10:30;;;;;;;16.83;8.73;;;19.70;52.00;;;;;;4702243;28;10000195;-36
2021/04/21 08:12:57;;;;;;;21.40;10.05;;;19.80;51.60;;;;;;5055275;28;20055;-34
2021/04/21 08:15:30;;;;;;;13.82;8.18;;;19.80;51.70;;;;;;5041804;28;20040;-30
2021/04/21 08:18:07;;;;;;;14.57;8.05;;;19.90;51.30;;;;;;5041964;28;20082;-36
2021/04/21 08:20:43;;;;;;;14.60;8.27;;;20.00;50.90;;;;;;5060225;28;20045;-32
2021/04/21 08:23:09;;;;;;;12.48;8.27;;;20.10;50.30;;;;;;5052553;28;20041;-32
2021/04/21 08:25:35;;;;;;;19.48;9.35;;;20.10;50.20;;;;;;5055366;28;20087;-34
2021/04/21 08:28:00;;;;;;;13.85;8.57;;;20.10;49.80;;;;;;5039076;28;20036;-34
2021/04/21 08:30:27;;;;;;;12.18;7.75;;;20.10;49.80;;;;;;5050332;28;20867;-33
2021/04/21 08:32:53;;;;;;;12.10;7.80;;;20.20;49.70;;;;;;5038628;28;20759;-35
2021/04/21 08:35:18;;;;;;;10.63;7.75;;;20.20;49.70;;;;;;5059183;28;20024;-36
2021/04/21 08:37:44;;;;;;;12.15;8.35;;;20.20;49.50;;;;;;5055504;28;20028;-35
2021/04/21 08:40:13;;;;;;;12.07;8.82;;;20.20;49.30;;;;;;5055308;28;20021;-34
2021/04/21 08:42:41;;;;;;;11.73;8.48;;;20.10;49.30;;;;;;5053279;28;20037;-35
2021/04/21 08:45:08;;;;;;;14.90;8.18;;;20.20;49.50;;;;;;5057829;28;20025;-34
2021/04/21 08:47:34;;;;;;;9.95;8.23;;;20.30;49.00;;;;;;5051982;28;20059;-54
2021/04/21 08:49:59;;;;;;;11.30;7.47;;;20.30;49.60;;;;;;5056414;28;20024;-31
2021/04/21 08:52:26;;;;;;;8.23;7.43;;;20.30;48.60;;;;;;5053561;28;20728;-40
2021/04/21 08:54:55;;;;;;;9.10;7.65;;;20.40;48.80;;;;;;5034844;28;20034;-35
2021/04/21 08:57:21;;;;;;;9.20;7.65;;;20.40;48.70;;;;;;5028244;28;20037;-42
2021/04/21 08:59:47;;;;;;;8.18;7.15;;;20.40;48.70;;;;;;5042137;28;20021;-32
2021/04/21 09:02:15;;;;;;;8.10;7.28;;;20.40;48.50;;;;;;5043648;28;20564;-38
2021/04/21 09:04:40;;;;;;;9.82;7.82;;;20.50;48.40;;;;;;5022470;28;20423;-37
2021/04/21 09:07:06;;;;;;;8.77;7.97;;;20.50;48.50;;;;;;5038322;28;20041;-28
2021/04/21 09:09:34;;;;;;;8.75;7.45;;;20.60;48.40;;;;;;5023819;28;20034;-40
2021/04/21 09:12:01;;;;;;;8.10;7.30;;;20.60;48.40;;;;;;5026317;28;20082;-37
2021/04/21 09:14:26;;;;;;;7.85;7.15;;;20.60;48.40;;;;;;5038857;28;20027;-44
2021/04/21 09:16:52;;;;;;;8.48;7.68;;;20.70;48.30;;;;;;5041739;28;20108;-31
2021/04/21 09:19:18;;;;;;;9.45;8.50;;;20.60;48.60;;;;;;5032886;28;20061;-42
2021/04/21 09:21:44;;;;;;;8.50;7.70;;;20.70;48.30;;;;;;5045165;28;20033;-37
2021/04/21 09:24:43;;;;;;;8.82;7.93;;;20.80;48.10;;;;;;5041939;28;20045;-34
2021/04/21 09:27:34;;;;;;;7.22;6.63;;;20.70;48.30;;;;;;4963507;28;20046;-32
2021/04/21 09:30:19;;;;;;;8.27;7.40;;;20.70;48.70;;;;;;4948802;28;20047;-34
2021/04/21 09:32:48;;;;;;;;;;;20.60;48.50;;;;;;4961358;28;20118;-33
2021/04/21 09:35:15;;;;;;;7.07;6.47;;;20.60;48.40;;;;;;4964332;28;19917;-46
2021/04/21 09:37:40;;;;;;;7.75;7.00;;;20.50;49.10;;;;;;4962907;28;20039;-34
2021/04/21 09:40:07;;;;;;;6.97;6.32;;;20.50;48.90;;;;;;4964440;28;20137;-40
2021/04/21 09:42:32;;;;;;;8.40;7.50;;;20.50;49.10;;;;;;4946105;28;20047;-32
2021/04/21 09:44:58;;;;;;;8.57;7.45;;;20.60;48.80;;;;;;4963791;28;20471;-31
2021/04/21 09:47:23;;;;;;;8.18;7.38;;;20.60;48.80;;;;;;4947667;28;20510;-39
2021/04/21 09:49:54;;;;;;;8.00;7.28;;;20.60;49.20;;;;;;4946620;28;20126;-38
2021/04/21 09:52:21;;;;;;;6.70;6.10;;;20.60;49.00;;;;;;4963142;28;20043;-41
2021/04/21 09:54:47;;;;;;;7.85;6.88;;;20.70;49.00;;;;;;4961428;28;20125;-41
2021/04/21 09:57:19;;;;;;;7.43;6.80;;;20.80;49.20;;;;;;4963296;28;20041;-41
2021/04/21 09:59:56;;;;;;;8.05;7.25;;;20.80;49.00;;;;;;4960279;28;20034;-38
2021/04/21 10:02:40;;;;;;;7.80;7.20;;;20.90;48.90;;;;;;4985631;28;20546;-46
2021/04/21 10:05:25;;;;;;;;;;;20.90;48.80;;;;;;5041972;28;20111;-37
2021/04/21 10:08:16;;;;;;;7.43;6.63;;;21.00;48.80;;;;;;5040686;28;20638;-31
2021/04/21 10:10:46;;;;;;;8.00;6.20;;;21.00;48.70;;;;;;5038241;28;20025;-41
2021/04/21 10:13:13;;;;;;;6.28;5.63;;;21.10;48.70;;;;;;5037508;28;20045;-35
2021/04/21 10:15:38;;;;;;;6.47;5.88;;;21.20;48.40;;;;;;5039609;28;20501;-36
2021/04/21 10:18:04;;;;;;;8.00;5.57;;;21.20;48.60;;;;;;5044695;28;20041;-37
2021/04/21 10:20:30;;;;;;;6.07;5.53;;;21.30;48.50;;;;;;5028763;28;20025;-37
2021/04/21 10:22:56;;;;;;;6.40;4.85;;;21.40;48.30;;;;;;5024789;28;20135;-37
2021/04/21 10:25:22;;;;;;;7.95;5.00;;;21.40;48.40;;;;;;5027693;28;20640;-35
2021/04/21 10:27:48;;;;;;;6.45;4.97;;;21.40;48.30;;;;;;5020376;28;20056;-35
2021/04/21 10:30:14;;;;;;;5.88;5.03;;;21.30;48.50;;;;;;5029819;28;20018;-33
2021/04/21 10:32:39;;;;;;;7.10;4.57;;;21.30;48.50;;;;;;5024419;28;20071;-31
2021/04/21 10:35:06;;;;;;;6.15;5.25;;;21.30;48.60;;;;;;5041228;28;20031;-29
2021/04/21 10:37:38;;;;;;;5.28;4.78;;;21.30;48.80;;;;;;5037154;28;20029;-33
2021/04/21 10:40:05;;;;;;;5.78;5.28;;;21.30;48.40;;;;;;5043675;28;20036;-30
2021/04/21 10:42:46;;;;;;;8.38;5.00;;;21.40;48.10;;;;;;5036080;28;20021;-28
2021/04/21 10:45:13;;;;;;;6.25;4.97;;;21.50;47.30;;;;;;5027635;28;20061;-34
2021/04/21 10:47:46;;;;;;;5.95;5.40;;;21.60;47.30;;;;;;5038053;28;20018;-31
2021/04/21 10:50:13;;;;;;;5.00;4.60;;;21.60;47.60;;;;;;5039296;28;20451;-35
2021/04/21 10:52:42;;;;;;;5.60;5.10;;;21.60;47.40;;;;;;5035121;28;20045;-32
2021/04/21 10:55:08;;;;;;;5.75;5.20;;;21.60;47.10;;;;;;5037504;28;20048;-29
2021/04/21 10:57:34;;;;;;;5.43;4.35;;;21.60;47.30;;;;;;5035914;28;20033;-37
2021/04/21 11:00:11;;;;;;;4.75;4.10;;;21.60;47.10;;;;;;5039652;28;20035;-36
2021/04/21 11:02:46;;;;;;;5.10;4.70;;;21.60;47.20;;;;;;5034089;28;20037;-33
2021/04/21 11:05:22;;;;;;;4.75;4.03;;;21.60;47.40;;;;;;5039291;28;20056;-32
2021/04/21 11:08:09;;;;;;;5.43;4.55;;;21.70;47.30;;;;;;5032358;28;20036;-30
2021/04/21 11:10:44;;;;;;;5.50;4.40;;;21.70;47.60;;;;;;5037233;28;20113;-32
2021/04/21 11:13:10;;;;;;;4.25;3.95;;;21.70;47.60;;;;;;5034257;28;20576;-35
2021/04/21 11:15:36;;;;;;;4.65;4.20;;;21.80;47.60;;;;;;5037846;28;20065;-31
2021/04/21 11:18:08;;;;;;;5.53;3.83;;;21.80;47.40;;;;;;5034763;28;20087;-31
2021/04/21 11:20:45;;;;;;;4.50;4.10;;;21.80;47.50;;;;;;5040880;28;20044;-30
2021/04/21 11:23:59;;;;;;;4.10;3.80;;;21.80;47.70;;;;;;5035236;28;20479;-31
2021/04/21 11:26:31;;;;;;;4.68;3.58;;;21.80;47.60;;;;;;5030193;28;20036;-38
2021/04/21 11:29:00;;;;;;;4.13;3.78;;;21.70;47.60;;;;;;5025660;28;20033;-35
2021/04/21 11:31:41;;;;;;;5.05;3.80;;;21.70;48.20;;;;;;5027114;28;20891;-33
2021/04/21 11:34:24;;;;;;;4.00;3.60;;;21.70;48.20;;;;;;5022765;28;20045;-35
2021/04/21 11:37:05;;;;;;;3.90;3.60;;;21.70;48.00;;;;;;5024115;28;20120;-32
2021/04/21 11:39:43;;;;;;;4.40;4.00;;;21.70;48.20;;;;;;5024627;28;20033;-34
2021/04/21 11:42:15;;;;;;;5.90;3.58;;;21.60;48.40;;;;;;5040208;28;20417;-41
2021/04/21 11:44:47;;;;;;;4.03;3.60;;;21.60;48.40;;;;;;5036553;28;20025;-42
2021/04/21 11:47:39;;;;;;;4.20;3.20;;;21.50;48.60;;;;;;5025762;28;20033;-32
2021/04/21 11:50:10;;;;;;;3.80;3.50;;;21.50;48.50;;;;;;5022969;28;20052;-29
2021/04/21 11:52:52;;;;;;;3.78;3.47;;;21.40;48.40;;;;;;5021003;28;20080;-35
2021/04/21 11:55:59;;;;;;;3.80;3.58;;;21.40;48.40;;;;;;5023520;28;20040;-33
2021/04/21 11:58:31;;;;;;;4.03;3.30;;;21.30;48.80;;;;;;5021944;28;20040;-38
2021/04/21 12:01:01;;;;;;;5.32;3.50;;;21.10;48.70;;;;;;5023105;28;20052;-35
2021/04/21 12:03:30;;;;;;;3.88;3.58;;;21.10;48.70;;;;;;5022330;28;20625;-36
2021/04/21 12:06:06;;;;;;;7.15;3.58;;;21.10;48.10;;;;;;5025046;28;20119;-37
2021/04/21 12:08:33;;;;;;;3.60;2.92;;;21.10;48.50;;;;;;5024954;28;20124;-36
2021/04/21 12:10:59;;;;;;;3.90;3.42;;;21.10;48.60;;;;;;5013031;28;21742;-34
2021/04/21 12:13:32;;;;;;;4.57;3.10;;;21.10;48.30;;;;;;5024533;28;20045;-32
2021/04/21 12:16:18;;;;;;;3.92;2.92;;;21.10;48.70;;;;;;5025716;28;20033;-33
2021/04/21 12:18:57;;;;;;;2.70;2.50;;;21.10;47.90;;;;;;5024647;28;20084;-34
2021/04/21 12:21:35;;;;;;;3.55;3.20;;;21.20;47.30;;;;;;5014632;28;20692;-34
2021/04/21 12:24:05;;;;;;;3.15;2.92;;;21.40;47.30;;;;;;5023671;28;20037;-35
2021/04/21 12:26:31;;;;;;;2.80;2.60;;;21.50;47.30;;;;;;5013424;28;20033;-37
2021/04/21 12:28:58;;;;;;;3.15;2.95;;;21.50;46.70;;;;;;5024950;28;20037;-39
2021/04/21 12:31:24;;;;;;;3.15;2.95;;;21.60;46.20;;;;;;5031900;28;20510;-32
2021/04/21 12:33:51;;;;;;;3.28;3.08;;;21.60;46.30;;;;;;5028884;28;20053;-38
2021/04/21 12:36:18;;;;;;;8.23;3.30;;;21.60;45.50;;;;;;5017281;28;20580;-33
2021/04/21 12:38:43;;;;;;;2.97;2.75;;;21.50;46.30;;;;;;5029204;28;20482;-33
2021/04/21 12:41:18;;;;;;;4.00;3.17;;;21.50;46.20;;;;;;5028159;28;20041;-33
2021/04/21 12:43:43;;;;;;;2.95;2.70;;;21.40;45.80;;;;;;5028188;28;20041;-33
2021/04/21 12:46:14;;;;;;;3.00;2.70;;;21.50;46.20;;;;;;5028548;28;20060;-49
2021/04/21 12:48:49;;;;;;;3.20;2.90;;;21.60;46.30;;;;;;5027976;28;20564;-35
2021/04/21 12:51:29;;;;;;;2.70;2.50;;;21.60;46.20;;;;;;5028859;28;20521;-37
2021/04/21 12:53:55;;;;;;;3.05;2.80;;;21.70;46.00;;;;;;5023648;28;20059;-42
2021/04/21 12:56:21;;;;;;;3.15;2.95;;;21.70;46.70;;;;;;5028197;28;20835;-41
2021/04/21 12:58:47;;;;;;;5.10;2.60;;;21.60;46.20;;;;;;5014075;28;20045;-35
2021/04/21 13:01:13;;;;;;;3.08;2.78;;;21.40;47.30;;;;;;5026428;28;20033;-40
2021/04/21 13:03:39;;;;;;;2.97;2.72;;;21.20;47.90;;;;;;5024232;28;20071;-34
2021/04/21 13:06:05;;;;;;;2.45;2.25;;;21.20;47.70;;;;;;5024007;28;20617;-35
2021/04/21 13:08:30;;;;;;;4.47;2.75;;;21.40;46.90;;;;;;5014152;28;20036;-31
2021/04/21 13:10:58;;;;;;;3.97;2.17;;;21.50;46.50;;;;;;5025057;28;20033;-45
2021/04/21 13:13:25;;;;;;;2.50;2.30;;;21.60;46.40;;;;;;5020285;28;20738;-35
2021/04/21 13:15:52;;;;;;;2.55;2.30;;;21.60;45.80;;;;;;4997869;28;20056;-38
2021/04/21 13:18:18;;;;;;;2.45;2.25;;;21.50;47.30;;;;;;5025481;28;20040;-33
2021/04/21 13:20:50;;;;;;;2.40;2.20;;;21.50;46.20;;;;;;5026608;28;20037;-33
2021/04/21 13:23:23;;;;;;;2.80;2.55;;;21.60;46.00;;;;;;5026294;28;20029;-34
2021/04/21 13:26:08;;;;;;;2.60;2.50;;;21.50;46.50;;;;;;5026361;28;20056;-34
2021/04/21 13:28:35;;;;;;;2.47;2.25;;;21.50;46.20;;;;;;5024520;28;20041;-36
2021/04/21 13:31:17;;;;;;;2.50;2.33;;;21.50;46.90;;;;;;5025606;28;20128;-31
2021/04/21 13:33:46;;;;;;;1.90;1.80;;;21.60;46.70;;;;;;5026609;28;20045;-33
2021/04/21 13:36:15;;;;;;;2.10;2.00;;;21.70;45.90;;;;;;4681364;28;10000090;-30
2021/04/21 13:38:42;;;;;;;2.88;2.20;;;21.70;46.00;;;;;;5030138;28;20163;-37
2021/04/21 13:41:09;;;;;;;2.30;2.10;;;21.80;46.00;;;;;;5047497;28;20102;-33
2021/04/21 13:43:35;;;;;;;3.60;2.85;;;21.80;46.20;;;;;;5039901;28;20128;-37
2021/04/21 13:46:00;;;;;;;2.70;2.50;;;21.80;45.80;;;;;;5035948;28;20033;-38
2021/04/21 13:48:26;;;;;;;2.20;2.10;;;21.70;45.60;;;;;;5032225;28;20029;-39
2021/04/21 13:50:53;;;;;;;2.10;1.88;;;21.70;46.30;;;;;;5040941;28;20033;-38
2021/04/21 13:53:18;;;;;;;2.60;2.40;;;21.70;46.60;;;;;;5039226;28;20033;-38
2021/04/21 13:55:44;;;;;;;2.40;2.30;;;21.60;47.10;;;;;;5039183;28;20548;-52
2021/04/21 13:58:10;;;;;;;2.25;2.13;;;21.60;46.90;;;;;;5036167;28;20041;-45
2021/04/21 14:00:36;;;;;;;4.22;2.20;;;21.50;47.70;;;;;;5036867;28;20118;-36
2021/04/21 14:03:01;;;;;;;3.03;2.42;;;21.60;46.80;;;;;;5034121;28;20034;-43
2021/04/21 14:05:28;;;;;;;4.63;2.53;;;21.70;45.60;;;;;;5041129;28;20510;-40
2021/04/21 14:07:54;;;;;;;2.17;2.08;;;21.70;47.00;;;;;;5037410;28;20026;-34
2021/04/21 14:10:20;;;;;;;2.22;1.88;;;21.60;46.90;;;;;;5041619;28;20096;-41
2021/04/21 14:12:46;;;;;;;2.13;2.03;;;21.50;47.30;;;;;;5042289;28;20574;-43
2021/04/21 14:15:12;;;;;;;2.20;2.10;;;21.50;47.20;;;;;;5035612;28;20037;-38
2021/04/21 14:17:38;;;;;;;2.20;2.10;;;21.50;46.60;;;;;;5040589;28;20099;-36
2021/04/21 14:20:05;;;;;;;2.33;2.17;;;21.60;47.10;;;;;;5042249;28;20135;-44
2021/04/21 14:22:32;;;;;;;3.92;2.50;;;21.70;45.50;;;;;;5043573;28;20049;-32
2021/04/21 14:24:58;;;;;;;2.78;2.08;;;21.70;46.40;;;;;;5045976;28;20068;-34
2021/04/21 14:27:24;;;;;;;7.47;2.22;;;21.70;45.50;;;;;;5044605;28;20569;-34
2021/04/21 14:29:49;;;;;;;2.42;2.33;;;21.80;44.90;;;;;;5048200;28;20049;-31
2021/04/21 14:32:15;;;;;;;2.30;2.10;;;21.80;45.40;;;;;;5041842;28;20064;-32
2021/04/21 14:34:40;;;;;;;3.05;2.40;;;21.70;44.60;;;;;;5023568;28;20049;-34
2021/04/21 14:37:06;;;;;;;2.65;2.10;;;21.70;44.40;;;;;;5044159;28;20075;-37
2021/04/21 14:39:31;;;;;;;2.25;2.05;;;21.70;45.30;;;;;;5045467;28;20111;-32
2021/04/21 14:41:57;;;;;;;5.00;2.72;;;21.70;44.00;;;;;;5046365;28;20045;-32
2021/04/21 14:44:23;;;;;;;2.67;2.40;;;21.50;43.40;;;;;;5041249;28;20048;-42
2021/04/21 14:46:48;;;;;;;3.90;2.40;;;21.50;44.90;;;;;;5040008;28;20052;-35
2021/04/21 14:49:14;;;;;;;2.97;2.13;;;21.40;44.50;;;;;;5043180;28;20463;-36
2021/04/21 14:51:39;;;;;;;2.40;2.20;;;21.40;44.60;;;;;;5043294;28;20053;-35
2021/04/21 14:54:05;;;;;;;3.28;2.10;;;21.70;45.10;;;;;;5043683;28;20522;-35
2021/04/21 14:56:31;;;;;;;2.42;2.22;;;21.70;45.00;;;;;;5028488;28;20049;-34
2021/04/21 14:58:56;;;;;;;2.65;2.40;;;21.80;43.80;;;;;;5046149;28;20114;-38
2021/04/21 15:01:22;;;;;;;2.38;2.13;;;21.80;44.90;;;;;;5045005;28;20068;-35
2021/04/21 15:03:48;;;;;;;2.78;2.58;;;21.80;45.00;;;;;;5041440;28;20518;-37
2021/04/21 15:06:13;;;;;;;4.18;2.45;;;21.70;44.20;;;;;;5045544;28;20047;-36
2021/04/21 15:08:39;;;;;;;4.28;2.75;;;21.60;44.90;;;;;;5046846;28;20720;-29
2021/04/21 15:11:06;;;;;;;3.30;2.60;;;21.60;44.60;;;;;;5035425;28;20114;-36
2021/04/21 15:13:31;;;;;;;4.25;2.30;;;21.50;44.90;;;;;;5037069;28;20061;-32
2021/04/21 15:15:57;;;;;;;3.78;2.83;;;21.60;45.00;;;;;;5042974;28;20076;-30
2021/04/21 15:18:24;;;;;;;3.45;2.85;;;21.60;44.60;;;;;;5039623;28;22060;-35
2021/04/21 15:20:50;;;;;;;2.42;2.33;;;21.50;45.20;;;;;;5043508;28;20041;-34
2021/04/21 15:23:16;;;;;;;2.53;2.33;;;21.60;45.10;;;;;;5027445;28;20423;-35
2021/04/21 15:25:41;;;;;;;2.92;2.60;;;21.70;45.80;;;;;;5045998;28;20491;-35
2021/04/21 15:28:07;;;;;;;3.40;3.10;;;21.70;44.80;;;;;;5042345;28;20056;-31
2021/04/21 15:30:32;;;;;;;4.47;4.07;;;21.60;44.90;;;;;;5046309;28;20076;-34
2021/04/21 15:32:58;;;;;;;4.88;4.57;;;21.60;44.70;;;;;;5041572;28;20057;-36
2021/04/21 15:35:25;;;;;;;5.80;5.25;;;21.60;45.50;;;;;;5026913;28;20377;-34
2021/04/21 15:37:52;;;;;;;6.85;6.25;;;21.50;45.00;;;;;;5042524;28;20037;-33
2021/04/21 15:40:19;;;;;;;7.25;5.30;;;21.50;43.90;;;;;;5040635;28;20051;-34
2021/04/21 15:42:48;;;;;;;4.80;4.50;;;21.50;45.40;;;;;;5040347;28;20045;-33
2021/04/21 15:45:15;;;;;;;4.18;3.97;;;21.70;46.00;;;;;;5036246;28;20045;-31
2021/04/21 15:47:41;;;;;;;5.45;4.95;;;21.80;45.10;;;;;;5047641;28;20407;-35
2021/04/21 15:50:07;;;;;;;5.90;5.47;;;21.70;44.70;;;;;;5044461;28;20049;-32
2021/04/21 15:52:34;;;;;;;7.63;4.88;;;21.70;44.60;;;;;;4688851;28;10000374;-38
2021/04/21 15:54:59;;;;;;;5.15;4.75;;;21.70;45.40;;;;;;5024107;28;20099;-38
2021/04/21 15:57:25;;;;;;;7.30;6.80;;;21.80;45.20;;;;;;5036561;28;20045;-35
2021/04/21 15:59:50;;;;;;;11.38;10.25;;;21.80;45.50;;;;;;5026034;28;20422;-40
2021/04/21 16:02:18;;;;;;;10.32;9.13;;;21.70;45.00;;;;;;5025094;28;20160;-38
2021/04/21 16:04:45;;;;;;;7.80;7.20;;;21.70;46.10;;;;;;5039248;28;20142;-38
2021/04/21 16:07:10;;;;;;;9.15;7.72;;;21.70;46.60;;;;;;5044400;28;20419;-40
2021/04/21 16:09:36;;;;;;;12.88;11.35;;;21.70;46.20;;;;;;5041101;28;20057;-40
2021/04/21 16:12:03;;;;;;;12.25;10.85;;;21.50;46.40;;;;;;5042048;28;20119;-40
2021/04/21 16:14:28;;;;;;;13.05;11.80;;;21.50;46.80;;;;;;5046486;28;20511;-35
2021/04/21 16:16:55;;;;;;;16.85;15.15;;;21.50;47.10;;;;;;5045204;28;20056;-37
2021/04/21 16:19:21;;;;;;;13.82;12.15;;;21.40;47.30;;;;;;5043065;28;20087;-31
2021/04/21 16:21:47;;;;;;;14.40;12.90;;;21.50;47.30;;;;;;5043626;28;20135;-35
2021/04/21 16:24:13;;;;;;;12.13;11.02;;;21.40;47.60;;;;;;5038161;28;20052;-34
2021/04/21 16:26:39;;;;;;;13.10;11.85;;;21.50;47.90;;;;;;5046058;28;20044;-33
2021/04/21 16:29:05;;;;;;;11.27;10.15;;;21.40;48.00;;;;;;5044785;28;20030;-40
2021/04/21 16:31:31;;;;;;;10.48;9.60;;;21.40;47.90;;;;;;5045420;28;20406;-33
2021/04/21 16:33:56;;;;;;;10.63;9.65;;;21.40;47.50;;;;;;5043691;28;20033;-32
2021/04/21 16:36:23;;;;;;;8.73;7.97;;;21.50;46.80;;;;;;5044420;28;20068;-34
2021/04/21 16:38:51;;;;;;;8.25;7.55;;;21.60;46.00;;;;;;5043211;28;20037;-34
2021/04/21 16:41:18;;;;;;;8.20;7.50;;;21.50;45.90;;;;;;5041723;28;20037;-31
2021/04/21 16:43:48;;;;;;;7.68;7.07;;;21.50;46.30;;;;;;5026472;28;20096;-35
2021/04/21 16:46:14;;;;;;;6.90;6.30;;;21.60;45.60;;;;;;5036260;28;20048;-35
2021/04/21 16:48:41;;;;;;;6.85;6.32;;;21.60;44.90;;;;;;5038440;28;20049;-49
2021/04/21 16:51:07;;;;;;;6.75;6.05;;;21.50;44.70;;;;;;5045586;28;20052;-35
2021/04/21 16:53:32;;;;;;;7.43;6.90;;;21.60;45.50;;;;;;5047509;28;20052;-32
2021/04/21 16:55:58;;;;;;;6.80;6.25;;;21.50;46.30;;;;;;5025125;28;20037;-31
2021/04/21 16:58:24;;;;;;;6.78;6.18;;;21.50;45.20;;;;;;5025184;28;20032;-30
2021/04/21 17:00:50;;;;;;;5.40;5.00;;;21.50;45.10;;;;;;5048223;28;20639;-32
2021/04/21 17:03:19;;;;;;;6.35;5.72;;;21.40;45.30;;;;;;5041722;28;20033;-31
2021/04/21 17:05:45;;;;;;;6.13;5.63;;;21.40;44.90;;;;;;5061712;28;20210;-32
2021/04/21 17:08:11;;;;;;;6.35;5.85;;;21.40;46.20;;;;;;5043604;28;20036;-31
2021/04/21 17:10:38;;;;;;;6.07;5.50;;;21.40;46.50;;;;;;5039643;28;20067;-32
2021/04/21 17:13:04;;;;;;;5.10;4.70;;;21.50;45.90;;;;;;5041633;28;20144;-32
2021/04/21 17:15:30;;;;;;;5.40;4.70;;;21.40;46.00;;;;;;5041380;28;20571;-30
2021/04/21 17:17:56;;;;;;;5.97;4.15;;;21.40;44.70;;;;;;5041873;28;20056;-31
2021/04/21 17:20:23;;;;;;;6.47;5.00;;;21.50;45.90;;;;;;5041743;28;20474;-32
2021/04/21 17:22:49;;;;;;;4.80;4.40;;;21.40;46.20;;;;;;5039568;28;20045;-35
2021/04/21 17:25:16;;;;;;;5.05;4.55;;;21.40;46.00;;;;;;5042460;28;20056;-33
2021/04/21 17:27:45;;;;;;;4.80;4.50;;;21.40;45.70;;;;;;5042106;28;20041;-30
2021/04/21 17:30:11;;;;;;;4.82;4.43;;;21.30;45.90;;;;;;5042947;28;20414;-29
2021/04/21 17:32:37;;;;;;;4.28;4.07;;;21.40;45.70;;;;;;5047320;28;20044;-34
2021/04/21 17:35:03;;;;;;;4.90;3.75;;;21.40;45.50;;;;;;5044811;28;20129;-30
2021/04/21 17:37:28;;;;;;;4.32;3.78;;;21.40;45.50;;;;;;5031541;28;20502;-33
2021/04/21 17:39:54;;;;;;;3.70;3.50;;;21.40;44.90;;;;;;5047314;28;20406;-28
2021/04/21 17:42:22;;;;;;;4.78;4.22;;;21.40;45.80;;;;;;5048904;28;20029;-34
2021/04/21 17:44:48;;;;;;;3.83;3.63;;;21.40;46.10;;;;;;5045864;28;20067;-32
2021/04/21 17:47:17;;;;;;;3.90;3.63;;;21.50;45.10;;;;;;5028870;28;20056;-32
2021/04/21 17:49:43;;;;;;;3.85;3.55;;;21.40;44.70;;;;;;5037914;28;20038;-35
2021/04/21 17:52:08;;;;;;;3.95;3.28;;;21.60;45.20;;;;;;5043183;28;20119;-32
2021/04/21 17:54:34;;;;;;;3.47;3.28;;;21.80;43.90;;;;;;4687342;28;10000558;-36
2021/04/21 17:57:01;;;;;;;3.83;3.20;;;21.80;44.10;;;;;;5037335;28;20045;-31
2021/04/21 17:59:26;;;;;;;6.10;3.53;;;21.90;43.10;;;;;;5044563;28;20066;-33
2021/04/21 18:01:52;;;;;;;4.20;3.45;;;22.00;42.60;;;;;;5039635;28;20049;-33
2021/04/21 18:04:18;;;;;;;3.95;3.70;;;22.00;42.20;;;;;;5042537;28;20566;-32
2021/04/21 18:06:43;;;;;;;3.70;3.50;;;21.90;42.90;;;;;;5043687;28;20064;-32
2021/04/21 18:09:09;;;;;;;3.95;3.60;;;21.90;42.80;;;;;;5044083;28;20063;-33
2021/04/21 18:11:35;;;;;;;3.30;3.10;;;21.90;42.90;;;;;;5043309;28;20067;-34
2021/04/21 18:14:04;;;;;;;3.40;3.20;;;21.90;42.50;;;;;;5042874;28;20076;-32
2021/04/21 18:16:30;;;;;;;3.30;3.00;;;21.90;42.70;;;;;;5041674;28;20102;-33
2021/04/21 18:18:55;;;;;;;3.28;3.08;;;22.00;42.60;;;;;;5044087;28;20048;-35
2021/04/21 18:21:21;;;;;;;3.70;3.03;;;22.00;42.80;;;;;;5024766;28;20092;-32
2021/04/21 18:23:46;;;;;;;6.53;3.33;;;22.00;44.60;;;;;;5040639;28;20040;-37
2021/04/21 18:26:12;;;;;;;3.65;3.30;;;21.80;45.10;;;;;;5024878;28;20041;-32
2021/04/21 18:28:37;;;;;;;3.92;3.50;;;21.90;44.80;;;;;;5042016;28;20879;-38
2021/04/21 18:31:03;;;;;;;4.13;3.65;;;21.90;44.70;;;;;;5042700;28;20590;-38
2021/04/21 18:33:29;;;;;;;3.78;3.50;;;21.80;45.20;;;;;;5037111;28;20077;-33
2021/04/21 18:35:54;;;;;;;3.88;3.30;;;21.80;45.20;;;;;;5044211;28;20040;-31
2021/04/21 18:38:20;;;;;;;3.03;2.83;;;21.60;45.40;;;;;;5040766;28;20060;-34
2021/04/21 18:40:45;;;;;;;3.97;3.78;;;21.60;45.80;;;;;;5040229;28;20049;-32
2021/04/21 18:43:11;;;;;;;3.92;3.63;;;21.40;46.00;;;;;;5038593;28;20068;-35
2021/04/21 18:45:39;;;;;;;4.13;3.70;;;21.40;46.40;;;;;;5031659;28;20128;-33
2021/04/21 18:48:05;;;;;;;3.70;3.40;;;21.50;46.20;;;;;;5052523;28;20160;-36
2021/04/21 18:50:31;;;;;;;4.32;3.95;;;21.60;45.80;;;;;;5044316;28;20063;-33
2021/04/21 18:53:04;;;;;;;4.68;4.28;;;21.80;45.40;;;;;;5042611;28;20054;-36
2021/04/21 18:55:32;;;;;;;5.40;4.57;;;21.80;45.20;;;;;;5037392;28;20048;-38
2021/04/21 18:58:01;;;;;;;4.18;3.90;;;21.80;45.50;;;;;;5046069;28;20462;-37
2021/04/21 19:00:28;;;;;;;5.07;4.65;;;21.70;45.70;;;;;;5035725;28;20578;-33
2021/04/21 19:03:00;;;;;;;5.13;4.72;;;21.60;46.30;;;;;;5042090;28;20507;-31
2021/04/21 19:05:26;;;;;;;4.65;4.25;;;21.40;47.30;;;;;;5048143;28;20049;-38
2021/04/21 19:07:52;;;;;;;4.65;4.28;;;21.50;46.90;;;;;;5034702;28;20111;-39
2021/04/21 19:10:17;;;;;;;5.65;4.95;;;21.60;46.80;;;;;;4687755;28;9999786;-32
2021/04/21 19:12:45;;;;;;;5.85;5.30;;;21.50;47.00;;;;;;5041198;28;20077;-44
2021/04/21 19:15:13;;;;;;;6.55;6.05;;;21.50;46.80;;;;;;5035383;28;20045;-41
2021/04/21 19:17:39;;;;;;;5.10;4.65;;;21.60;47.00;;;;;;5016576;28;20088;-39
2021/04/21 19:20:11;;;;;;;4.70;4.30;;;21.60;46.80;;;;;;5038961;28;20068;-42
2021/04/21 19:22:37;;;;;;;5.07;4.68;;;21.70;47.10;;;;;;5038228;28;20040;-43
2021/04/21 19:25:05;;;;;;;5.85;5.30;;;21.70;46.80;;;;;;5023287;28;20056;-45
2021/04/21 19:27:31;;;;;;;5.47;5.03;;;21.60;47.20;;;;;;5031187;28;20145;-41
2021/04/21 19:29:57;;;;;;;6.15;5.65;;;21.50;47.30;;;;;;5038443;28;20471;-43
2021/04/21 19:32:22;;;;;;;7.88;6.00;;;21.40;47.50;;;;;;5039507;28;20099;-42
2021/04/21 19:34:48;;;;;;;6.70;6.20;;;21.40;47.50;;;;;;5038147;28;20087;-44
2021/04/21 19:37:15;;;;;;;6.22;5.63;;;21.40;47.80;;;;;;5038564;28;20423;-43
2021/04/21 19:39:43;;;;;;;7.50;5.90;;;21.40;47.70;;;;;;5040023;28;20506;-39
2021/04/21 19:42:12;;;;;;;6.35;5.75;;;21.40;47.90;;;;;;5030539;28;20075;-42
2021/04/21 19:44:46;;;;;;;6.63;6.13;;;21.30;47.90;;;;;;5033415;28;20095;-40
2021/04/21 19:47:15;;;;;;;6.35;5.85;;;21.30;48.00;;;;;;5036672;28;20049;-44
2021/04/21 19:49:41;;;;;;;6.70;6.20;;;21.30;48.10;;;;;;5038494;28;20549;-43
2021/04/21 19:52:07;;;;;;;6.28;5.88;;;21.30;48.00;;;;;;5037570;28;20057;-43
2021/04/21 19:54:33;;;;;;;6.57;5.97;;;21.40;48.00;;;;;;5038392;28;21728;-42
2021/04/21 19:56:58;;;;;;;6.95;6.40;;;21.50;48.00;;;;;;5022117;28;20132;-43
2021/04/21 19:59:24;;;;;;;6.80;6.32;;;21.40;48.00;;;;;;5042615;28;20049;-41
2021/04/21 20:01:49;;;;;;;6.55;6.05;;;21.40;48.10;;;;;;5045210;28;20132;-41
2021/04/21 20:04:15;;;;;;;7.32;6.68;;;21.40;48.30;;;;;;5033211;28;20130;-43
2021/04/21 20:06:41;;;;;;;6.15;5.65;;;21.30;48.30;;;;;;5037007;28;20098;-43
2021/04/21 20:09:07;;;;;;;6.75;6.20;;;21.40;49.00;;;;;;5038703;28;20053;-39
2021/04/21 20:11:33;;;;;;;6.45;5.93;;;21.40;48.30;;;;;;5043055;28;20494;-44
2021/04/21 20:13:58;;;;;;;6.90;6.30;;;21.30;48.70;;;;;;5037659;28;20059;-45
2021/04/21 20:16:24;;;;;;;7.30;6.68;;;21.30;48.70;;;;;;5039520;28;20040;-44
2021/04/21 20:18:50;;;;;;;7.57;6.88;;;21.30;48.80;;;;;;5036403;28;20098;-43
2021/04/21 20:21:19;;;;;;;7.63;7.03;;;21.20;48.80;;;;;;5040457;28;20041;-43
2021/04/21 20:23:45;;;;;;;7.43;6.78;;;21.20;49.00;;;;;;5037209;28;20041;-42
2021/04/21 20:26:11;;;;;;;8.57;7.78;;;21.20;49.00;;;;;;5036985;28;20072;-43
2021/04/21 20:28:36;;;;;;;8.48;7.13;;;21.10;49.10;;;;;;5033604;28;20734;-43
2021/04/21 20:31:02;;;;;;;8.18;7.40;;;21.20;49.20;;;;;;5037089;28;20183;-42
2021/04/21 20:33:27;;;;;;;7.60;7.00;;;21.20;49.40;;;;;;5030712;28;20056;-44
2021/04/21 20:35:53;;;;;;;6.68;6.07;;;21.20;49.60;;;;;;5034955;28;20099;-42
2021/04/21 20:38:19;;;;;;;8.68;7.75;;;21.30;49.30;;;;;;5036195;28;20064;-39
2021/04/21 20:40:44;;;;;;;8.73;7.93;;;21.30;49.50;;;;;;5033989;28;20045;-42
2021/04/21 20:43:10;;;;;;;8.40;7.70;;;21.20;49.30;;;;;;5040544;28;20541;-42
2021/04/21 20:45:36;;;;;;;8.15;7.35;;;21.20;49.30;;;;;;5035149;28;20085;-44
2021/04/21 20:48:02;;;;;;;7.22;6.63;;;21.30;49.50;;;;;;5042677;28;20499;-43
2021/04/21 20:50:28;;;;;;;7.75;7.03;;;21.20;49.40;;;;;;5042083;28;20053;-43
2021/04/21 20:52:54;;;;;;;7.65;7.05;;;21.20;49.50;;;;;;5042350;28;20133;-39
2021/04/21 20:55:19;;;;;;;7.80;7.10;;;21.30;49.50;;;;;;5039364;28;20441;-42